sensor_id;sensor_type;location;lat;lon;timestamp;temperature;humidity
8402;DHT22;4238;48.404;9.498;2023-04-10T00:00:53;4.90;1.00
8402;DHT22;4238;48.404;9.498;2023-04-10T00:03:22;5.00;1.00
8402;DHT22;4238;48.404;9.498;2023-04-10T00:05:49;4.90;1.00
8402;DHT22;4238;48.404;9.498;2023-04-10T00:08:21;4.90;1.00
8402;DHT22;4238;48.404;9.498;2023-04-10T00:10:48;4.80;1.00
8402;DHT22;4238;48.404;9.498;2023-04-10T00:13:15;4.80;1.00
8402;DHT22;4238;48.404;9.498;2023-04-10T00:15:42;4.90;1.00
8402;DHT22;4238;48.404;9.498;2023-04-10T00:18:09;4.90;1.00
8402;DHT22;4238;48.404;9.498;2023-04-10T00:20:36;4.90;1.00
8402;DHT22;4238;48.404;9.498;2023-04-10T00:23:03;4.90;1.00
8402;DHT22;4238;48.404;9.498;2023-04-10T00:25:31;4.90;1.00
8402;DHT22;4238;48.404;9.498;2023-04-10T00:27:58;4.90;1.00
8402;DHT22;4238;48.404;9.498;2023-04-10T00:30:25;4.90;1.00
8402;DHT22;4238;48.404;9.498;2023-04-10T00:32:52;4.90;1.00
8402;DHT22;4238;48.404;9.498;2023-04-10T00:35:19;4.90;1.00
8402;DHT22;4238;48.404;9.498;2023-04-10T00:37:46;5.00;1.00
8402;DHT22;4238;48.404;9.498;2023-04-10T00:40:14;4.90;1.00
8402;DHT22;4238;48.404;9.498;2023-04-10T00:42:43;4.90;1.00
8402;DHT22;4238;48.404;9.498;2023-04-10T00:45:10;4.80;1.00
8402;DHT22;4238;48.404;9.498;2023-04-10T00:47:37;4.80;1.00
8402;DHT22;4238;48.404;9.498;2023-04-10T00:50:06;4.80;1.00
8402;DHT22;4238;48.404;9.498;2023-04-10T00:52:33;4.80;1.00
8402;DHT22;4238;48.404;9.498;2023-04-10T00:54:59;4.80;1.00
8402;DHT22;4238;48.404;9.498;2023-04-10T00:57:26;4.80;1.00
8402;DHT22;4238;48.404;9.498;2023-04-10T00:59:55;4.80;1.00
8402;DHT22;4238;48.404;9.498;2023-04-10T01:02:22;4.80;1.00
8402;DHT22;4238;48.404;9.498;2023-04-10T01:04:49;4.80;1.00
8402;DHT22;4238;48.404;9.498;2023-04-10T01:07:25;4.70;1.00
8402;DHT22;4238;48.404;9.498;2023-04-10T01:10:01;4.80;1.00
8402;DHT22;4238;48.404;9.498;2023-04-10T01:12:42;4.80;1.00
8402;DHT22;4238;48.404;9.498;2023-04-10T01:15:15;4.80;1.00
8402;DHT22;4238;48.404;9.498;2023-04-10T01:17:48;4.90;1.00
8402;DHT22;4238;48.404;9.498;2023-04-10T01:20:20;4.90;1.00
8402;DHT22;4238;48.404;9.498;2023-04-10T01:23:11;4.90;99.90
8402;DHT22;4238;48.404;9.498;2023-04-10T01:25:47;4.90;99.90
8402;DHT22;4238;48.404;9.498;2023-04-10T01:28:52;4.70;99.90
8402;DHT22;4238;48.404;9.498;2023-04-10T01:31:29;4.70;1.00
8402;DHT22;4238;48.404;9.498;2023-04-10T01:34:03;4.70;99.90
8402;DHT22;4238;48.404;9.498;2023-04-10T01:36:35;4.70;99.90
8402;DHT22;4238;48.404;9.498;2023-04-10T01:39:04;4.70;99.90
8402;DHT22;4238;48.404;9.498;2023-04-10T01:41:33;4.80;17.60
8402;DHT22;4238;48.404;9.498;2023-04-10T01:44:02;4.80;1.00
8402;DHT22;4238;48.404;9.498;2023-04-10T01:46:30;4.70;1.00
8402;DHT22;4238;48.404;9.498;2023-04-10T01:49:00;4.70;1.00
8402;DHT22;4238;48.404;9.498;2023-04-10T01:51:30;4.70;1.00
8402;DHT22;4238;48.404;9.498;2023-04-10T01:53:58;4.60;99.90
8402;DHT22;4238;48.404;9.498;2023-04-10T01:56:26;4.50;99.90
8402;DHT22;4238;48.404;9.498;2023-04-10T01:58:53;4.60;99.90
8402;DHT22;4238;48.404;9.498;2023-04-10T02:01:22;4.50;99.90
8402;DHT22;4238;48.404;9.498;2023-04-10T02:03:49;4.50;99.40
8402;DHT22;4238;48.404;9.498;2023-04-10T02:06:23;4.40;48.50
8402;DHT22;4238;48.404;9.498;2023-04-10T02:08:58;4.50;90.00
8402;DHT22;4238;48.404;9.498;2023-04-10T02:11:33;4.40;99.90
8402;DHT22;4238;48.404;9.498;2023-04-10T02:14:04;4.40;99.90
8402;DHT22;4238;48.404;9.498;2023-04-10T02:16:36;4.40;99.90
8402;DHT22;4238;48.404;9.498;2023-04-10T02:19:04;4.30;99.90
8402;DHT22;4238;48.404;9.498;2023-04-10T02:21:32;4.20;1.00
8402;DHT22;4238;48.404;9.498;2023-04-10T02:24:00;4.10;1.00
8402;DHT22;4238;48.404;9.498;2023-04-10T02:26:27;4.00;1.00
8402;DHT22;4238;48.404;9.498;2023-04-10T02:28:53;4.00;1.00
8402;DHT22;4238;48.404;9.498;2023-04-10T02:31:20;4.00;1.00
8402;DHT22;4238;48.404;9.498;2023-04-10T02:33:49;4.10;1.00
8402;DHT22;4238;48.404;9.498;2023-04-10T02:36:15;4.00;99.90
8402;DHT22;4238;48.404;9.498;2023-04-10T02:38:42;4.00;99.90
8402;DHT22;4238;48.404;9.498;2023-04-10T02:41:09;3.90;99.90
8402;DHT22;4238;48.404;9.498;2023-04-10T02:43:36;4.00;99.90
8402;DHT22;4238;48.404;9.498;2023-04-10T02:46:03;4.10;99.90
8402;DHT22;4238;48.404;9.498;2023-04-10T02:48:30;4.10;99.90
8402;DHT22;4238;48.404;9.498;2023-04-10T02:50:59;4.30;1.00
8402;DHT22;4238;48.404;9.498;2023-04-10T02:53:26;4.30;99.90
8402;DHT22;4238;48.404;9.498;2023-04-10T02:55:53;4.30;1.00
8402;DHT22;4238;48.404;9.498;2023-04-10T02:58:20;4.30;1.00
8402;DHT22;4238;48.404;9.498;2023-04-10T03:00:48;4.30;1.00
8402;DHT22;4238;48.404;9.498;2023-04-10T03:03:15;4.40;1.00
8402;DHT22;4238;48.404;9.498;2023-04-10T03:05:42;4.40;99.90
8402;DHT22;4238;48.404;9.498;2023-04-10T03:08:13;4.30;99.90
8402;DHT22;4238;48.404;9.498;2023-04-10T03:10:41;4.30;1.00
8402;DHT22;4238;48.404;9.498;2023-04-10T03:13:08;4.30;99.90
8402;DHT22;4238;48.404;9.498;2023-04-10T03:15:36;4.30;99.90
8402;DHT22;4238;48.404;9.498;2023-04-10T03:18:03;4.30;99.90
8402;DHT22;4238;48.404;9.498;2023-04-10T03:20:30;4.40;1.00
8402;DHT22;4238;48.404;9.498;2023-04-10T03:22:58;4.40;99.90
8402;DHT22;4238;48.404;9.498;2023-04-10T03:25:26;4.40;1.00
8402;DHT22;4238;48.404;9.498;2023-04-10T03:27:53;4.30;99.90
8402;DHT22;4238;48.404;9.498;2023-04-10T03:30:20;4.30;99.90
8402;DHT22;4238;48.404;9.498;2023-04-10T03:32:47;4.30;1.00
8402;DHT22;4238;48.404;9.498;2023-04-10T03:35:14;4.30;1.00
8402;DHT22;4238;48.404;9.498;2023-04-10T03:37:41;4.30;99.90
8402;DHT22;4238;48.404;9.498;2023-04-10T03:40:09;4.30;99.90
8402;DHT22;4238;48.404;9.498;2023-04-10T03:42:37;4.30;99.90
8402;DHT22;4238;48.404;9.498;2023-04-10T03:45:05;4.30;99.90
8402;DHT22;4238;48.404;9.498;2023-04-10T03:47:33;4.30;1.00
8402;DHT22;4238;48.404;9.498;2023-04-10T03:50:00;4.30;99.90
8402;DHT22;4238;48.404;9.498;2023-04-10T03:52:27;4.20;99.90
8402;DHT22;4238;48.404;9.498;2023-04-10T03:54:54;4.30;99.90
8402;DHT22;4238;48.404;9.498;2023-04-10T03:57:21;4.30;99.90
8402;DHT22;4238;48.404;9.498;2023-04-10T03:59:49;4.30;1.00
8402;DHT22;4238;48.404;9.498;2023-04-10T04:02:16;4.40;99.90
8402;DHT22;4238;48.404;9.498;2023-04-10T04:04:43;4.40;1.00
8402;DHT22;4238;48.404;9.498;2023-04-10T04:07:10;4.30;1.00
8402;DHT22;4238;48.404;9.498;2023-04-10T04:09:38;4.40;99.90
8402;DHT22;4238;48.404;9.498;2023-04-10T04:12:05;4.40;1.00
8402;DHT22;4238;48.404;9.498;2023-04-10T04:14:33;4.40;1.00
8402;DHT22;4238;48.404;9.498;2023-04-10T04:17:01;4.30;1.00
8402;DHT22;4238;48.404;9.498;2023-04-10T04:19:28;4.30;1.00
8402;DHT22;4238;48.404;9.498;2023-04-10T04:21:55;4.30;1.00
8402;DHT22;4238;48.404;9.498;2023-04-10T04:24:24;4.40;99.90
8402;DHT22;4238;48.404;9.498;2023-04-10T04:26:52;4.40;1.00
8402;DHT22;4238;48.404;9.498;2023-04-10T04:29:19;4.30;99.90
8402;DHT22;4238;48.404;9.498;2023-04-10T04:31:46;4.30;1.00
8402;DHT22;4238;48.404;9.498;2023-04-10T04:34:14;4.30;99.90
8402;DHT22;4238;48.404;9.498;2023-04-10T04:36:41;4.30;99.90
8402;DHT22;4238;48.404;9.498;2023-04-10T04:39:08;4.30;1.00
8402;DHT22;4238;48.404;9.498;2023-04-10T04:41:35;4.30;99.90
8402;DHT22;4238;48.404;9.498;2023-04-10T04:44:02;4.30;1.00
8402;DHT22;4238;48.404;9.498;2023-04-10T04:46:29;4.30;99.90
8402;DHT22;4238;48.404;9.498;2023-04-10T04:48:55;4.30;1.00
8402;DHT22;4238;48.404;9.498;2023-04-10T04:51:24;4.30;1.00
8402;DHT22;4238;48.404;9.498;2023-04-10T04:53:51;4.30;1.00
8402;DHT22;4238;48.404;9.498;2023-04-10T04:56:18;4.30;99.90
8402;DHT22;4238;48.404;9.498;2023-04-10T04:58:45;4.30;91.10
8402;DHT22;4238;48.404;9.498;2023-04-10T05:01:12;4.40;99.90
8402;DHT22;4238;48.404;9.498;2023-04-10T05:03:39;4.30;1.00
8402;DHT22;4238;48.404;9.498;2023-04-10T05:06:06;4.30;1.00
8402;DHT22;4238;48.404;9.498;2023-04-10T05:08:34;4.30;1.00
8402;DHT22;4238;48.404;9.498;2023-04-10T05:11:01;4.30;99.90
8402;DHT22;4238;48.404;9.498;2023-04-10T05:13:28;4.40;1.00
8402;DHT22;4238;48.404;9.498;2023-04-10T05:15:55;4.30;99.90
8402;DHT22;4238;48.404;9.498;2023-04-10T05:18:22;4.40;99.90
8402;DHT22;4238;48.404;9.498;2023-04-10T05:20:49;4.50;99.90
8402;DHT22;4238;48.404;9.498;2023-04-10T05:23:16;4.60;99.90
8402;DHT22;4238;48.404;9.498;2023-04-10T05:25:44;4.60;1.00
8402;DHT22;4238;48.404;9.498;2023-04-10T05:28:11;4.60;1.00
8402;DHT22;4238;48.404;9.498;2023-04-10T05:30:38;4.80;1.00
8402;DHT22;4238;48.404;9.498;2023-04-10T05:33:06;4.90;99.90
8402;DHT22;4238;48.404;9.498;2023-04-10T05:35:33;5.00;1.00
8402;DHT22;4238;48.404;9.498;2023-04-10T05:38:00;5.00;99.90
8402;DHT22;4238;48.404;9.498;2023-04-10T05:40:27;5.10;99.90
8402;DHT22;4238;48.404;9.498;2023-04-10T05:42:56;5.20;99.90
8402;DHT22;4238;48.404;9.498;2023-04-10T05:45:23;5.30;1.00
8402;DHT22;4238;48.404;9.498;2023-04-10T05:47:50;5.40;99.90
8402;DHT22;4238;48.404;9.498;2023-04-10T05:50:17;5.40;99.90
8402;DHT22;4238;48.404;9.498;2023-04-10T05:52:43;5.50;99.90
8402;DHT22;4238;48.404;9.498;2023-04-10T05:55:11;5.60;99.90
8402;DHT22;4238;48.404;9.498;2023-04-10T05:57:38;5.70;99.90
8402;DHT22;4238;48.404;9.498;2023-04-10T06:00:07;5.80;99.90
8402;DHT22;4238;48.404;9.498;2023-04-10T06:02:34;5.90;1.00
8402;DHT22;4238;48.404;9.498;2023-04-10T06:05:01;5.90;1.00
8402;DHT22;4238;48.404;9.498;2023-04-10T06:07:28;5.90;1.00
8402;DHT22;4238;48.404;9.498;2023-04-10T06:09:57;6.10;1.00
8402;DHT22;4238;48.404;9.498;2023-04-10T06:12:23;6.30;99.90
8402;DHT22;4238;48.404;9.498;2023-04-10T06:14:50;6.40;1.00
8402;DHT22;4238;48.404;9.498;2023-04-10T06:17:19;6.50;1.00
8402;DHT22;4238;48.404;9.498;2023-04-10T06:19:46;6.60;99.90
8402;DHT22;4238;48.404;9.498;2023-04-10T06:22:13;6.70;99.90
8402;DHT22;4238;48.404;9.498;2023-04-10T06:24:40;6.60;99.90
8402;DHT22;4238;48.404;9.498;2023-04-10T06:27:07;6.80;99.90
8402;DHT22;4238;48.404;9.498;2023-04-10T06:29:34;6.50;99.90
8402;DHT22;4238;48.404;9.498;2023-04-10T06:32:01;6.80;99.90
8402;DHT22;4238;48.404;9.498;2023-04-10T06:34:29;6.90;1.00
8402;DHT22;4238;48.404;9.498;2023-04-10T06:36:56;7.00;5.10
8402;DHT22;4238;48.404;9.498;2023-04-10T06:39:23;6.90;1.00
8402;DHT22;4238;48.404;9.498;2023-04-10T06:41:50;6.90;1.00
8402;DHT22;4238;48.404;9.498;2023-04-10T06:44:17;7.10;1.00
8402;DHT22;4238;48.404;9.498;2023-04-10T06:46:43;7.20;1.00
8402;DHT22;4238;48.404;9.498;2023-04-10T06:49:10;7.30;1.00
8402;DHT22;4238;48.404;9.498;2023-04-10T06:51:38;7.50;99.90
8402;DHT22;4238;48.404;9.498;2023-04-10T06:54:05;7.50;99.90
8402;DHT22;4238;48.404;9.498;2023-04-10T06:56:32;7.70;99.90
8402;DHT22;4238;48.404;9.498;2023-04-10T06:58:59;7.40;99.90
8402;DHT22;4238;48.404;9.498;2023-04-10T07:01:26;7.60;46.60
8402;DHT22;4238;48.404;9.498;2023-04-10T07:03:53;7.80;1.00
8402;DHT22;4238;48.404;9.498;2023-04-10T07:06:20;8.00;1.00
8402;DHT22;4238;48.404;9.498;2023-04-10T07:08:49;8.00;1.00
8402;DHT22;4238;48.404;9.498;2023-04-10T07:11:16;8.00;1.00
8402;DHT22;4238;48.404;9.498;2023-04-10T07:13:43;7.80;1.00
8402;DHT22;4238;48.404;9.498;2023-04-10T07:16:10;7.80;1.00
8402;DHT22;4238;48.404;9.498;2023-04-10T07:18:37;8.10;1.00
8402;DHT22;4238;48.404;9.498;2023-04-10T07:21:09;8.10;1.00
8402;DHT22;4238;48.404;9.498;2023-04-10T07:23:36;8.40;1.00
8402;DHT22;4238;48.404;9.498;2023-04-10T07:26:05;8.20;1.00
8402;DHT22;4238;48.404;9.498;2023-04-10T07:28:32;8.40;1.00
8402;DHT22;4238;48.404;9.498;2023-04-10T07:30:59;8.70;99.90
8402;DHT22;4238;48.404;9.498;2023-04-10T07:33:26;8.60;99.90
8402;DHT22;4238;48.404;9.498;2023-04-10T07:35:53;8.50;99.90
8402;DHT22;4238;48.404;9.498;2023-04-10T07:38:20;9.00;99.90
8402;DHT22;4238;48.404;9.498;2023-04-10T07:40:48;9.30;99.90
8402;DHT22;4238;48.404;9.498;2023-04-10T07:43:17;10.00;99.90
8402;DHT22;4238;48.404;9.498;2023-04-10T07:45:43;10.30;99.90
8402;DHT22;4238;48.404;9.498;2023-04-10T07:48:11;10.20;21.90
8402;DHT22;4238;48.404;9.498;2023-04-10T07:50:38;9.90;2.60
8402;DHT22;4238;48.404;9.498;2023-04-10T07:53:05;9.80;14.80
8402;DHT22;4238;48.404;9.498;2023-04-10T07:55:36;9.80;17.60
8402;DHT22;4238;48.404;9.498;2023-04-10T07:58:03;9.80;24.10
8402;DHT22;4238;48.404;9.498;2023-04-10T08:00:32;10.30;26.60
8402;DHT22;4238;48.404;9.498;2023-04-10T08:02:59;10.70;1.00
8402;DHT22;4238;48.404;9.498;2023-04-10T08:05:26;11.00;1.00
8402;DHT22;4238;48.404;9.498;2023-04-10T08:07:53;10.80;1.00
8402;DHT22;4238;48.404;9.498;2023-04-10T08:10:20;11.10;1.00
8402;DHT22;4238;48.404;9.498;2023-04-10T08:12:47;11.30;1.00
8402;DHT22;4238;48.404;9.498;2023-04-10T08:15:14;11.20;1.00
8402;DHT22;4238;48.404;9.498;2023-04-10T08:17:42;10.60;1.00
8402;DHT22;4238;48.404;9.498;2023-04-10T08:20:11;10.90;1.00
8402;DHT22;4238;48.404;9.498;2023-04-10T08:22:38;11.30;1.00
8402;DHT22;4238;48.404;9.498;2023-04-10T08:25:05;11.80;1.00
8402;DHT22;4238;48.404;9.498;2023-04-10T08:27:32;11.70;1.00
8402;DHT22;4238;48.404;9.498;2023-04-10T08:29:59;11.60;1.00
8402;DHT22;4238;48.404;9.498;2023-04-10T08:32:26;12.00;1.00
8402;DHT22;4238;48.404;9.498;2023-04-10T08:34:55;12.50;1.00
8402;DHT22;4238;48.404;9.498;2023-04-10T08:37:22;12.40;1.00
8402;DHT22;4238;48.404;9.498;2023-04-10T08:39:50;12.50;1.00
8402;DHT22;4238;48.404;9.498;2023-04-10T08:42:18;12.60;1.00
8402;DHT22;4238;48.404;9.498;2023-04-10T08:44:47;13.30;1.00
8402;DHT22;4238;48.404;9.498;2023-04-10T08:47:17;13.50;1.00
8402;DHT22;4238;48.404;9.498;2023-04-10T08:49:48;13.50;1.00
8402;DHT22;4238;48.404;9.498;2023-04-10T08:52:21;13.20;99.90
8402;DHT22;4238;48.404;9.498;2023-04-10T08:54:52;12.30;99.90
8402;DHT22;4238;48.404;9.498;2023-04-10T08:57:20;12.60;99.90
8402;DHT22;4238;48.404;9.498;2023-04-10T08:59:47;12.70;99.90
8402;DHT22;4238;48.404;9.498;2023-04-10T09:02:14;13.00;99.90
8402;DHT22;4238;48.404;9.498;2023-04-10T09:04:46;12.60;99.90
8402;DHT22;4238;48.404;9.498;2023-04-10T09:07:13;12.50;99.90
8402;DHT22;4238;48.404;9.498;2023-04-10T09:09:42;12.70;99.90
8402;DHT22;4238;48.404;9.498;2023-04-10T09:12:09;13.10;99.90
8402;DHT22;4238;48.404;9.498;2023-04-10T09:14:36;12.80;99.90
8402;DHT22;4238;48.404;9.498;2023-04-10T09:17:11;13.10;99.90
8402;DHT22;4238;48.404;9.498;2023-04-10T09:19:38;13.10;99.90
8402;DHT22;4238;48.404;9.498;2023-04-10T09:22:05;13.50;99.90
8402;DHT22;4238;48.404;9.498;2023-04-10T09:24:35;13.60;99.90
8402;DHT22;4238;48.404;9.498;2023-04-10T09:27:04;13.40;99.90
8402;DHT22;4238;48.404;9.498;2023-04-10T09:29:40;12.70;99.90
8402;DHT22;4238;48.404;9.498;2023-04-10T09:32:07;13.10;99.90
8402;DHT22;4238;48.404;9.498;2023-04-10T09:34:37;13.30;99.90
8402;DHT22;4238;48.404;9.498;2023-04-10T09:37:17;13.70;99.90
8402;DHT22;4238;48.404;9.498;2023-04-10T09:39:45;13.90;99.90
8402;DHT22;4238;48.404;9.498;2023-04-10T09:42:13;13.90;99.90
8402;DHT22;4238;48.404;9.498;2023-04-10T09:44:41;14.00;99.90
8402;DHT22;4238;48.404;9.498;2023-04-10T09:47:15;14.70;99.90
8402;DHT22;4238;48.404;9.498;2023-04-10T09:49:46;14.40;99.90
8402;DHT22;4238;48.404;9.498;2023-04-10T09:52:18;14.50;99.90
8402;DHT22;4238;48.404;9.498;2023-04-10T09:54:45;15.00;99.90
8402;DHT22;4238;48.404;9.498;2023-04-10T09:57:16;15.30;99.90
8402;DHT22;4238;48.404;9.498;2023-04-10T09:59:47;15.10;99.90
8402;DHT22;4238;48.404;9.498;2023-04-10T10:02:16;15.20;99.90
8402;DHT22;4238;48.404;9.498;2023-04-10T10:04:44;15.50;99.90
8402;DHT22;4238;48.404;9.498;2023-04-10T10:07:13;15.10;99.90
8402;DHT22;4238;48.404;9.498;2023-04-10T10:09:41;15.80;99.90
8402;DHT22;4238;48.404;9.498;2023-04-10T10:12:09;15.60;99.90
8402;DHT22;4238;48.404;9.498;2023-04-10T10:14:43;15.60;99.90
8402;DHT22;4238;48.404;9.498;2023-04-10T10:17:14;15.50;99.90
8402;DHT22;4238;48.404;9.498;2023-04-10T10:19:50;15.80;99.90
8402;DHT22;4238;48.404;9.498;2023-04-10T10:22:19;15.70;99.90
8402;DHT22;4238;48.404;9.498;2023-04-10T10:24:48;15.70;99.90
8402;DHT22;4238;48.404;9.498;2023-04-10T10:27:17;15.50;99.90
8402;DHT22;4238;48.404;9.498;2023-04-10T10:29:47;15.30;99.90
8402;DHT22;4238;48.404;9.498;2023-04-10T10:32:16;15.60;99.90
8402;DHT22;4238;48.404;9.498;2023-04-10T10:34:44;16.20;99.90
8402;DHT22;4238;48.404;9.498;2023-04-10T10:37:12;16.20;99.90
8402;DHT22;4238;48.404;9.498;2023-04-10T10:39:46;16.30;99.90
8402;DHT22;4238;48.404;9.498;2023-04-10T10:42:21;16.60;99.90
8402;DHT22;4238;48.404;9.498;2023-04-10T10:44:54;15.20;99.90
8402;DHT22;4238;48.404;9.498;2023-04-10T10:47:25;15.90;99.90
8402;DHT22;4238;48.404;9.498;2023-04-10T10:49:54;16.50;99.90
8402;DHT22;4238;48.404;9.498;2023-04-10T10:52:52;16.80;99.90
8402;DHT22;4238;48.404;9.498;2023-04-10T10:55:28;17.30;99.90
8402;DHT22;4238;48.404;9.498;2023-04-10T10:57:57;17.00;99.90
8402;DHT22;4238;48.404;9.498;2023-04-10T11:01:05;17.50;99.90
8402;DHT22;4238;48.404;9.498;2023-04-10T11:03:35;16.80;99.90
8402;DHT22;4238;48.404;9.498;2023-04-10T11:06:05;17.30;99.90
8402;DHT22;4238;48.404;9.498;2023-04-10T11:08:51;17.00;99.90
8402;DHT22;4238;48.404;9.498;2023-04-10T11:11:19;16.90;99.90
8402;DHT22;4238;48.404;9.498;2023-04-10T11:14:12;16.90;99.90
8402;DHT22;4238;48.404;9.498;2023-04-10T11:16:47;17.00;99.90
8402;DHT22;4238;48.404;9.498;2023-04-10T11:19:14;16.20;99.90
8402;DHT22;4238;48.404;9.498;2023-04-10T11:22:04;16.80;99.90
8402;DHT22;4238;48.404;9.498;2023-04-10T11:24:57;16.60;99.90
8402;DHT22;4238;48.404;9.498;2023-04-10T11:27:41;16.70;99.90
8402;DHT22;4238;48.404;9.498;2023-04-10T11:30:33;16.30;99.90
8402;DHT22;4238;48.404;9.498;2023-04-10T11:33:03;16.60;99.90
8402;DHT22;4238;48.404;9.498;2023-04-10T11:35:30;16.50;99.90
8402;DHT22;4238;48.404;9.498;2023-04-10T11:38:08;16.50;99.90
8402;DHT22;4238;48.404;9.498;2023-04-10T11:40:35;16.20;99.90
8402;DHT22;4238;48.404;9.498;2023-04-10T11:43:12;16.10;99.90
8402;DHT22;4238;48.404;9.498;2023-04-10T11:45:39;15.90;99.90
8402;DHT22;4238;48.404;9.498;2023-04-10T11:48:08;16.90;99.90
8402;DHT22;4238;48.404;9.498;2023-04-10T11:50:35;17.00;99.90
8402;DHT22;4238;48.404;9.498;2023-04-10T11:53:02;17.10;99.90
8402;DHT22;4238;48.404;9.498;2023-04-10T11:55:42;17.60;99.90
8402;DHT22;4238;48.404;9.498;2023-04-10T11:58:21;18.20;99.90
8402;DHT22;4238;48.404;9.498;2023-04-10T12:00:55;17.50;99.90
8402;DHT22;4238;48.404;9.498;2023-04-10T12:03:32;17.80;99.90
8402;DHT22;4238;48.404;9.498;2023-04-10T12:06:00;17.50;99.90
8402;DHT22;4238;48.404;9.498;2023-04-10T12:08:31;17.60;99.90
8402;DHT22;4238;48.404;9.498;2023-04-10T12:10:58;17.90;99.90
8402;DHT22;4238;48.404;9.498;2023-04-10T12:13:25;18.30;99.90
8402;DHT22;4238;48.404;9.498;2023-04-10T12:15:52;17.60;99.90
8402;DHT22;4238;48.404;9.498;2023-04-10T12:18:20;18.10;99.90
8402;DHT22;4238;48.404;9.498;2023-04-10T12:20:50;18.20;99.90
8402;DHT22;4238;48.404;9.498;2023-04-10T12:23:21;18.60;99.90
8402;DHT22;4238;48.404;9.498;2023-04-10T12:25:48;18.00;99.90
8402;DHT22;4238;48.404;9.498;2023-04-10T12:28:18;16.80;99.90
8402;DHT22;4238;48.404;9.498;2023-04-10T12:30:47;17.90;99.90
8402;DHT22;4238;48.404;9.498;2023-04-10T12:33:18;18.20;99.90
8402;DHT22;4238;48.404;9.498;2023-04-10T12:35:45;18.30;99.90
8402;DHT22;4238;48.404;9.498;2023-04-10T12:38:14;17.70;99.90
8402;DHT22;4238;48.404;9.498;2023-04-10T12:40:56;18.20;99.90
8402;DHT22;4238;48.404;9.498;2023-04-10T12:43:30;18.20;99.90
8402;DHT22;4238;48.404;9.498;2023-04-10T12:45:58;18.50;99.90
8402;DHT22;4238;48.404;9.498;2023-04-10T12:48:25;18.00;99.90
8402;DHT22;4238;48.404;9.498;2023-04-10T12:50:52;17.20;99.90
8402;DHT22;4238;48.404;9.498;2023-04-10T12:53:21;18.00;99.90
8402;DHT22;4238;48.404;9.498;2023-04-10T12:56:02;18.30;99.90
8402;DHT22;4238;48.404;9.498;2023-04-10T12:58:29;17.60;99.90
8402;DHT22;4238;48.404;9.498;2023-04-10T13:00:58;17.20;99.90
8402;DHT22;4238;48.404;9.498;2023-04-10T13:03:28;17.70;99.90
8402;DHT22;4238;48.404;9.498;2023-04-10T13:05:55;18.00;99.90
8402;DHT22;4238;48.404;9.498;2023-04-10T13:08:23;18.00;99.90
8402;DHT22;4238;48.404;9.498;2023-04-10T13:10:50;18.00;99.90
8402;DHT22;4238;48.404;9.498;2023-04-10T13:13:17;18.30;99.90
8402;DHT22;4238;48.404;9.498;2023-04-10T13:15:44;18.30;99.90
8402;DHT22;4238;48.404;9.498;2023-04-10T13:18:12;18.40;99.90
8402;DHT22;4238;48.404;9.498;2023-04-10T13:20:39;18.40;99.90
8402;DHT22;4238;48.404;9.498;2023-04-10T13:23:06;17.40;99.90
8402;DHT22;4238;48.404;9.498;2023-04-10T13:25:36;17.20;99.90
8402;DHT22;4238;48.404;9.498;2023-04-10T13:28:04;17.60;99.90
8402;DHT22;4238;48.404;9.498;2023-04-10T13:30:36;17.50;99.90
8402;DHT22;4238;48.404;9.498;2023-04-10T13:33:03;17.90;99.90
8402;DHT22;4238;48.404;9.498;2023-04-10T13:35:30;17.90;99.90
8402;DHT22;4238;48.404;9.498;2023-04-10T13:37:57;17.90;99.90
8402;DHT22;4238;48.404;9.498;2023-04-10T13:40:24;17.70;99.90
8402;DHT22;4238;48.404;9.498;2023-04-10T13:42:53;18.10;99.90
8402;DHT22;4238;48.404;9.498;2023-04-10T13:45:19;17.30;99.90
8402;DHT22;4238;48.404;9.498;2023-04-10T13:47:47;17.40;99.90
8402;DHT22;4238;48.404;9.498;2023-04-10T13:50:13;17.30;99.90
8402;DHT22;4238;48.404;9.498;2023-04-10T13:52:40;17.00;99.90
8402;DHT22;4238;48.404;9.498;2023-04-10T13:55:08;16.90;99.90
8402;DHT22;4238;48.404;9.498;2023-04-10T13:57:35;17.10;99.90
8402;DHT22;4238;48.404;9.498;2023-04-10T14:00:05;17.50;99.90
8402;DHT22;4238;48.404;9.498;2023-04-10T14:02:32;17.50;99.90
8402;DHT22;4238;48.404;9.498;2023-04-10T14:04:59;17.60;99.90
8402;DHT22;4238;48.404;9.498;2023-04-10T14:07:26;17.60;99.90
8402;DHT22;4238;48.404;9.498;2023-04-10T14:09:53;17.40;99.90
8402;DHT22;4238;48.404;9.498;2023-04-10T14:12:19;17.40;99.90
8402;DHT22;4238;48.404;9.498;2023-04-10T14:14:47;16.80;99.90
8402;DHT22;4238;48.404;9.498;2023-04-10T14:17:16;16.60;99.90
8402;DHT22;4238;48.404;9.498;2023-04-10T14:19:43;16.60;99.90
8402;DHT22;4238;48.404;9.498;2023-04-10T14:22:12;16.40;99.90
8402;DHT22;4238;48.404;9.498;2023-04-10T14:24:39;16.60;99.90
8402;DHT22;4238;48.404;9.498;2023-04-10T14:27:06;16.50;99.90
8402;DHT22;4238;48.404;9.498;2023-04-10T14:29:33;16.40;99.90
8402;DHT22;4238;48.404;9.498;2023-04-10T14:32:00;16.00;99.90
8402;DHT22;4238;48.404;9.498;2023-04-10T14:34:28;16.20;99.90
8402;DHT22;4238;48.404;9.498;2023-04-10T14:36:55;16.30;99.90
8402;DHT22;4238;48.404;9.498;2023-04-10T14:39:23;16.30;99.90
8402;DHT22;4238;48.404;9.498;2023-04-10T14:41:50;16.40;99.90
8402;DHT22;4238;48.404;9.498;2023-04-10T14:44:17;16.40;99.90
8402;DHT22;4238;48.404;9.498;2023-04-10T14:46:44;16.40;99.90
8402;DHT22;4238;48.404;9.498;2023-04-10T14:49:12;16.10;99.90
8402;DHT22;4238;48.404;9.498;2023-04-10T14:51:43;16.30;99.90
8402;DHT22;4238;48.404;9.498;2023-04-10T14:54:10;16.50;99.90
8402;DHT22;4238;48.404;9.498;2023-04-10T14:56:37;16.50;99.90
8402;DHT22;4238;48.404;9.498;2023-04-10T14:59:04;16.70;99.90
8402;DHT22;4238;48.404;9.498;2023-04-10T15:01:31;16.80;99.90
8402;DHT22;4238;48.404;9.498;2023-04-10T15:04:00;16.50;99.90
8402;DHT22;4238;48.404;9.498;2023-04-10T15:06:26;16.40;99.90
8402;DHT22;4238;48.404;9.498;2023-04-10T15:08:55;16.40;99.90
8402;DHT22;4238;48.404;9.498;2023-04-10T15:11:22;16.60;99.90
8402;DHT22;4238;48.404;9.498;2023-04-10T15:13:49;16.70;99.90
8402;DHT22;4238;48.404;9.498;2023-04-10T15:16:16;15.90;99.90
8402;DHT22;4238;48.404;9.498;2023-04-10T15:18:46;15.80;99.90
8402;DHT22;4238;48.404;9.498;2023-04-10T15:21:13;16.00;99.90
8402;DHT22;4238;48.404;9.498;2023-04-10T15:23:40;16.40;99.90
8402;DHT22;4238;48.404;9.498;2023-04-10T15:26:11;16.20;99.90
8402;DHT22;4238;48.404;9.498;2023-04-10T15:28:39;16.10;99.90
8402;DHT22;4238;48.404;9.498;2023-04-10T15:31:06;16.30;99.90
8402;DHT22;4238;48.404;9.498;2023-04-10T15:33:33;16.20;99.90
8402;DHT22;4238;48.404;9.498;2023-04-10T15:36:01;16.20;99.90
8402;DHT22;4238;48.404;9.498;2023-04-10T15:38:28;15.80;99.90
8402;DHT22;4238;48.404;9.498;2023-04-10T15:40:55;15.70;99.90
8402;DHT22;4238;48.404;9.498;2023-04-10T15:43:24;15.90;99.90
8402;DHT22;4238;48.404;9.498;2023-04-10T15:45:51;15.90;99.90
8402;DHT22;4238;48.404;9.498;2023-04-10T15:48:18;15.80;99.90
8402;DHT22;4238;48.404;9.498;2023-04-10T15:50:47;15.50;99.90
8402;DHT22;4238;48.404;9.498;2023-04-10T15:53:14;15.40;99.90
8402;DHT22;4238;48.404;9.498;2023-04-10T15:55:41;15.60;99.90
8402;DHT22;4238;48.404;9.498;2023-04-10T15:58:08;15.40;99.90
8402;DHT22;4238;48.404;9.498;2023-04-10T16:00:36;15.40;99.90
8402;DHT22;4238;48.404;9.498;2023-04-10T16:03:03;15.50;99.90
8402;DHT22;4238;48.404;9.498;2023-04-10T16:05:30;15.50;99.90
8402;DHT22;4238;48.404;9.498;2023-04-10T16:07:57;15.30;99.90
8402;DHT22;4238;48.404;9.498;2023-04-10T16:10:24;15.40;99.90
8402;DHT22;4238;48.404;9.498;2023-04-10T16:12:50;15.50;99.90
8402;DHT22;4238;48.404;9.498;2023-04-10T16:15:17;16.00;99.90
8402;DHT22;4238;48.404;9.498;2023-04-10T16:17:46;15.80;99.90
8402;DHT22;4238;48.404;9.498;2023-04-10T16:20:13;15.90;99.90
8402;DHT22;4238;48.404;9.498;2023-04-10T16:22:40;16.00;99.90
8402;DHT22;4238;48.404;9.498;2023-04-10T16:25:07;16.20;99.90